sensor_id;sensor_type;location;lat;lon;timestamp;P1;durP1;ratioP1;P2;durP2;ratioP2
77520;SDS011;66633;47.628;19.158;2024-03-29T00:02:22;2.28;;;1.20;;
77520;SDS011;66633;47.628;19.158;2024-03-29T00:04:47;2.33;;;1.17;;
77520;SDS011;66633;47.628;19.158;2024-03-29T00:07:13;3.78;;;1.40;;
77520;SDS011;66633;47.628;19.158;2024-03-29T00:09:38;3.95;;;1.30;;
77520;SDS011;66633;47.628;19.158;2024-03-29T00:12:04;3.65;;;1.50;;
77520;SDS011;66633;47.628;19.158;2024-03-29T00:14:31;2.72;;;1.30;;
77520;SDS011;66633;47.628;19.158;2024-03-29T00:16:56;4.80;;;1.20;;
77520;SDS011;66633;47.628;19.158;2024-03-29T00:19:22;2.70;;;1.13;;
77520;SDS011;66633;47.628;19.158;2024-03-29T00:21:47;2.65;;;1.00;;
77520;SDS011;66633;47.628;19.158;2024-03-29T00:24:12;2.53;;;1.10;;
77520;SDS011;66633;47.628;19.158;2024-03-29T00:26:37;2.33;;;0.90;;
77520;SDS011;66633;47.628;19.158;2024-03-29T00:29:03;1.65;;;0.88;;
77520;SDS011;66633;47.628;19.158;2024-03-29T00:31:28;1.20;;;0.80;;
77520;SDS011;66633;47.628;19.158;2024-03-29T00:33:54;1.00;;;0.70;;
77520;SDS011;66633;47.628;19.158;2024-03-29T00:36:19;1.90;;;0.63;;
77520;SDS011;66633;47.628;19.158;2024-03-29T00:38:44;1.45;;;0.85;;
77520;SDS011;66633;47.628;19.158;2024-03-29T00:41:09;1.50;;;0.75;;
77520;SDS011;66633;47.628;19.158;2024-03-29T00:43:35;1.20;;;0.60;;
77520;SDS011;66633;47.628;19.158;2024-03-29T00:46:00;1.00;;;0.68;;
77520;SDS011;66633;47.628;19.158;2024-03-29T00:48:25;0.57;;;0.50;;
77520;SDS011;66633;47.628;19.158;2024-03-29T00:50:51;0.95;;;0.60;;
77520;SDS011;66633;47.628;19.158;2024-03-29T00:53:17;1.00;;;0.45;;
77520;SDS011;66633;47.628;19.158;2024-03-29T00:55:42;1.13;;;0.60;;
77520;SDS011;66633;47.628;19.158;2024-03-29T00:58:08;1.00;;;0.52;;
77520;SDS011;66633;47.628;19.158;2024-03-29T01:00:34;0.77;;;0.60;;
77520;SDS011;66633;47.628;19.158;2024-03-29T01:02:59;0.55;;;0.50;;
77520;SDS011;66633;47.628;19.158;2024-03-29T01:05:24;1.13;;;0.60;;
77520;SDS011;66633;47.628;19.158;2024-03-29T01:07:50;0.80;;;0.45;;
77520;SDS011;66633;47.628;19.158;2024-03-29T01:10:15;0.73;;;0.50;;
77520;SDS011;66633;47.628;19.158;2024-03-29T01:12:40;0.98;;;0.60;;
77520;SDS011;66633;47.628;19.158;2024-03-29T01:15:06;2.13;;;0.60;;
77520;SDS011;66633;47.628;19.158;2024-03-29T01:17:31;1.92;;;0.70;;
77520;SDS011;66633;47.628;19.158;2024-03-29T01:19:57;0.43;;;0.43;;
77520;SDS011;66633;47.628;19.158;2024-03-29T01:22:22;2.33;;;0.98;;
77520;SDS011;66633;47.628;19.158;2024-03-29T01:24:47;1.92;;;0.93;;
77520;SDS011;66633;47.628;19.158;2024-03-29T01:27:13;1.98;;;0.90;;
77520;SDS011;66633;47.628;19.158;2024-03-29T01:29:38;2.28;;;0.90;;
77520;SDS011;66633;47.628;19.158;2024-03-29T01:32:04;2.05;;;0.90;;
77520;SDS011;66633;47.628;19.158;2024-03-29T01:34:29;2.03;;;0.90;;
77520;SDS011;66633;47.628;19.158;2024-03-29T01:36:55;1.45;;;0.70;;
77520;SDS011;66633;47.628;19.158;2024-03-29T01:39:20;1.75;;;0.60;;
77520;SDS011;66633;47.628;19.158;2024-03-29T01:41:50;0.55;;;0.50;;
77520;SDS011;66633;47.628;19.158;2024-03-29T01:44:15;0.80;;;0.50;;
77520;SDS011;66633;47.628;19.158;2024-03-29T01:46:40;1.63;;;0.57;;
77520;SDS011;66633;47.628;19.158;2024-03-29T01:49:05;0.77;;;0.63;;
77520;SDS011;66633;47.628;19.158;2024-03-29T01:51:31;2.13;;;0.60;;
77520;SDS011;66633;47.628;19.158;2024-03-29T01:53:57;0.98;;;0.57;;
77520;SDS011;66633;47.628;19.158;2024-03-29T01:56:23;2.08;;;0.88;;
77520;SDS011;66633;47.628;19.158;2024-03-29T01:58:49;1.65;;;0.65;;
77520;SDS011;66633;47.628;19.158;2024-03-29T02:01:16;1.20;;;0.40;;
77520;SDS011;66633;47.628;19.158;2024-03-29T02:03:41;2.40;;;0.50;;
77520;SDS011;66633;47.628;19.158;2024-03-29T02:06:07;1.83;;;0.80;;
77520;SDS011;66633;47.628;19.158;2024-03-29T02:08:33;1.52;;;0.60;;
77520;SDS011;66633;47.628;19.158;2024-03-29T02:10:59;1.48;;;0.70;;
77520;SDS011;66633;47.628;19.158;2024-03-29T02:13:24;1.50;;;0.90;;
77520;SDS011;66633;47.628;19.158;2024-03-29T02:15:50;2.10;;;0.88;;
77520;SDS011;66633;47.628;19.158;2024-03-29T02:18:15;1.83;;;0.82;;
77520;SDS011;66633;47.628;19.158;2024-03-29T02:20:40;1.73;;;0.80;;
77520;SDS011;66633;47.628;19.158;2024-03-29T02:23:06;2.70;;;0.90;;
77520;SDS011;66633;47.628;19.158;2024-03-29T02:25:33;1.55;;;0.90;;
77520;SDS011;66633;47.628;19.158;2024-03-29T02:27:58;1.65;;;0.80;;
77520;SDS011;66633;47.628;19.158;2024-03-29T02:30:24;2.75;;;0.80;;
77520;SDS011;66633;47.628;19.158;2024-03-29T02:32:50;0.95;;;0.70;;
77520;SDS011;66633;47.628;19.158;2024-03-29T02:35:15;2.55;;;0.93;;
77520;SDS011;66633;47.628;19.158;2024-03-29T02:37:40;2.70;;;0.82;;
77520;SDS011;66633;47.628;19.158;2024-03-29T02:40:06;2.05;;;0.85;;
77520;SDS011;66633;47.628;19.158;2024-03-29T02:42:33;1.80;;;0.70;;
77520;SDS011;66633;47.628;19.158;2024-03-29T02:44:59;2.00;;;0.65;;
77520;SDS011;66633;47.628;19.158;2024-03-29T02:47:24;1.08;;;0.68;;
77520;SDS011;66633;47.628;19.158;2024-03-29T02:49:50;2.03;;;0.60;;
77520;SDS011;66633;47.628;19.158;2024-03-29T02:52:15;0.80;;;0.50;;
77520;SDS011;66633;47.628;19.158;2024-03-29T02:54:41;1.55;;;0.63;;
77520;SDS011;66633;47.628;19.158;2024-03-29T02:57:06;2.30;;;0.77;;
77520;SDS011;66633;47.628;19.158;2024-03-29T02:59:32;0.85;;;0.57;;
77520;SDS011;66633;47.628;19.158;2024-03-29T03:01:57;0.77;;;0.60;;
77520;SDS011;66633;47.628;19.158;2024-03-29T03:04:22;0.93;;;0.50;;
77520;SDS011;66633;47.628;19.158;2024-03-29T03:06:47;2.03;;;0.60;;
77520;SDS011;66633;47.628;19.158;2024-03-29T03:09:13;0.82;;;0.50;;
77520;SDS011;66633;47.628;19.158;2024-03-29T03:11:57;1.17;;;0.65;;
77520;SDS011;66633;47.628;19.158;2024-03-29T03:14:23;1.88;;;0.68;;
77520;SDS011;66633;47.628;19.158;2024-03-29T03:16:48;0.60;;;0.50;;
77520;SDS011;66633;47.628;19.158;2024-03-29T03:19:13;0.90;;;0.50;;
77520;SDS011;66633;47.628;19.158;2024-03-29T03:21:39;2.70;;;0.90;;
77520;SDS011;66633;47.628;19.158;2024-03-29T03:24:04;1.85;;;0.73;;
77520;SDS011;66633;47.628;19.158;2024-03-29T03:26:30;1.30;;;0.50;;
77520;SDS011;66633;47.628;19.158;2024-03-29T03:28:55;1.05;;;0.60;;
77520;SDS011;66633;47.628;19.158;2024-03-29T03:31:20;1.42;;;0.50;;
77520;SDS011;66633;47.628;19.158;2024-03-29T03:33:46;0.55;;;0.52;;
77520;SDS011;66633;47.628;19.158;2024-03-29T03:36:11;1.20;;;0.50;;
77520;SDS011;66633;47.628;19.158;2024-03-29T03:38:36;0.90;;;0.43;;
77520;SDS011;66633;47.628;19.158;2024-03-29T03:41:03;1.55;;;0.60;;
77520;SDS011;66633;47.628;19.158;2024-03-29T03:43:29;1.63;;;0.60;;
77520;SDS011;66633;47.628;19.158;2024-03-29T03:45:59;1.38;;;0.50;;
77520;SDS011;66633;47.628;19.158;2024-03-29T03:48:25;1.25;;;0.65;;
77520;SDS011;66633;47.628;19.158;2024-03-29T03:50:50;0.95;;;0.70;;
77520;SDS011;66633;47.628;19.158;2024-03-29T03:53:15;1.55;;;0.70;;
77520;SDS011;66633;47.628;19.158;2024-03-29T03:55:41;1.15;;;0.57;;
77520;SDS011;66633;47.628;19.158;2024-03-29T03:58:06;3.13;;;0.77;;
77520;SDS011;66633;47.628;19.158;2024-03-29T04:00:31;1.75;;;0.65;;
77520;SDS011;66633;47.628;19.158;2024-03-29T04:02:57;1.48;;;0.50;;
77520;SDS011;66633;47.628;19.158;2024-03-29T04:05:22;1.13;;;0.70;;
77520;SDS011;66633;47.628;19.158;2024-03-29T04:07:48;1.55;;;0.73;;
77520;SDS011;66633;47.628;19.158;2024-03-29T04:10:13;1.50;;;0.68;;
77520;SDS011;66633;47.628;19.158;2024-03-29T04:12:39;1.45;;;0.82;;
77520;SDS011;66633;47.628;19.158;2024-03-29T04:15:04;1.67;;;0.80;;
77520;SDS011;66633;47.628;19.158;2024-03-29T04:17:30;2.67;;;0.90;;
77520;SDS011;66633;47.628;19.158;2024-03-29T04:19:56;2.42;;;0.95;;
77520;SDS011;66633;47.628;19.158;2024-03-29T04:22:21;2.15;;;1.00;;
77520;SDS011;66633;47.628;19.158;2024-03-29T04:24:47;3.05;;;1.00;;
77520;SDS011;66633;47.628;19.158;2024-03-29T04:27:12;2.97;;;1.05;;
77520;SDS011;66633;47.628;19.158;2024-03-29T04:29:37;3.00;;;1.00;;
77520;SDS011;66633;47.628;19.158;2024-03-29T04:32:03;3.00;;;1.10;;
77520;SDS011;66633;47.628;19.158;2024-03-29T04:34:28;3.03;;;1.10;;
77520;SDS011;66633;47.628;19.158;2024-03-29T04:36:53;3.10;;;1.20;;
77520;SDS011;66633;47.628;19.158;2024-03-29T04:39:19;2.80;;;1.13;;
77520;SDS011;66633;47.628;19.158;2024-03-29T04:41:44;1.85;;;0.95;;
77520;SDS011;66633;47.628;19.158;2024-03-29T04:44:11;3.42;;;1.00;;
77520;SDS011;66633;47.628;19.158;2024-03-29T04:46:37;1.67;;;0.90;;
77520;SDS011;66633;47.628;19.158;2024-03-29T04:49:02;2.88;;;0.80;;
77520;SDS011;66633;47.628;19.158;2024-03-29T04:51:28;2.40;;;0.75;;
77520;SDS011;66633;47.628;19.158;2024-03-29T04:53:53;1.67;;;0.80;;
77520;SDS011;66633;47.628;19.158;2024-03-29T04:56:18;3.08;;;0.85;;
77520;SDS011;66633;47.628;19.158;2024-03-29T04:58:43;1.58;;;0.68;;
77520;SDS011;66633;47.628;19.158;2024-03-29T05:01:11;2.60;;;0.90;;
77520;SDS011;66633;47.628;19.158;2024-03-29T05:03:36;2.28;;;0.98;;
77520;SDS011;66633;47.628;19.158;2024-03-29T05:06:02;3.25;;;1.08;;
77520;SDS011;66633;47.628;19.158;2024-03-29T05:08:27;3.20;;;1.08;;
77520;SDS011;66633;47.628;19.158;2024-03-29T05:10:52;3.55;;;1.20;;
77520;SDS011;66633;47.628;19.158;2024-03-29T05:13:18;4.35;;;1.27;;
77520;SDS011;66633;47.628;19.158;2024-03-29T05:15:46;3.03;;;1.20;;
77520;SDS011;66633;47.628;19.158;2024-03-29T05:18:12;5.00;;;1.73;;
77520;SDS011;66633;47.628;19.158;2024-03-29T05:20:38;4.72;;;1.50;;
77520;SDS011;66633;47.628;19.158;2024-03-29T05:23:06;2.85;;;1.40;;
77520;SDS011;66633;47.628;19.158;2024-03-29T05:25:31;3.28;;;1.10;;
77520;SDS011;66633;47.628;19.158;2024-03-29T05:27:56;4.35;;;1.40;;
77520;SDS011;66633;47.628;19.158;2024-03-29T05:30:22;4.95;;;1.27;;
77520;SDS011;66633;47.628;19.158;2024-03-29T05:32:49;3.38;;;1.27;;
77520;SDS011;66633;47.628;19.158;2024-03-29T05:35:14;4.68;;;1.63;;
77520;SDS011;66633;47.628;19.158;2024-03-29T05:37:40;3.90;;;1.50;;
77520;SDS011;66633;47.628;19.158;2024-03-29T05:40:06;4.10;;;1.35;;
77520;SDS011;66633;47.628;19.158;2024-03-29T05:42:32;3.53;;;1.33;;
77520;SDS011;66633;47.628;19.158;2024-03-29T05:44:58;2.85;;;1.20;;
77520;SDS011;66633;47.628;19.158;2024-03-29T05:47:24;3.55;;;1.30;;
77520;SDS011;66633;47.628;19.158;2024-03-29T05:49:49;3.63;;;1.10;;
77520;SDS011;66633;47.628;19.158;2024-03-29T05:52:15;3.53;;;1.10;;
77520;SDS011;66633;47.628;19.158;2024-03-29T05:54:44;2.88;;;1.00;;
77520;SDS011;66633;47.628;19.158;2024-03-29T05:57:09;3.55;;;1.23;;
77520;SDS011;66633;47.628;19.158;2024-03-29T05:59:35;2.33;;;1.17;;
77520;SDS011;66633;47.628;19.158;2024-03-29T06:02:01;2.33;;;1.05;;
77520;SDS011;66633;47.628;19.158;2024-03-29T06:04:26;2.92;;;1.20;;
77520;SDS011;66633;47.628;19.158;2024-03-29T06:06:57;3.85;;;1.30;;
77520;SDS011;66633;47.628;19.158;2024-03-29T06:09:24;3.92;;;1.30;;
77520;SDS011;66633;47.628;19.158;2024-03-29T06:11:49;3.63;;;1.20;;
77520;SDS011;66633;47.628;19.158;2024-03-29T06:14:14;3.38;;;1.23;;
77520;SDS011;66633;47.628;19.158;2024-03-29T06:16:58;3.67;;;1.33;;
77520;SDS011;66633;47.628;19.158;2024-03-29T06:19:42;4.93;;;1.48;;
77520;SDS011;66633;47.628;19.158;2024-03-29T06:22:07;4.40;;;1.75;;
77520;SDS011;66633;47.628;19.158;2024-03-29T06:24:34;3.95;;;1.45;;
77520;SDS011;66633;47.628;19.158;2024-03-29T06:27:00;3.33;;;1.30;;
77520;SDS011;66633;47.628;19.158;2024-03-29T06:29:25;3.90;;;1.65;;
77520;SDS011;66633;47.628;19.158;2024-03-29T06:31:50;4.80;;;1.85;;
77520;SDS011;66633;47.628;19.158;2024-03-29T06:34:16;6.35;;;1.73;;
77520;SDS011;66633;47.628;19.158;2024-03-29T06:36:41;5.85;;;2.13;;
77520;SDS011;66633;47.628;19.158;2024-03-29T06:39:06;3.92;;;1.92;;
77520;SDS011;66633;47.628;19.158;2024-03-29T06:41:33;4.07;;;1.60;;
77520;SDS011;66633;47.628;19.158;2024-03-29T06:43:58;5.47;;;1.70;;
77520;SDS011;66633;47.628;19.158;2024-03-29T06:46:24;3.40;;;1.30;;
77520;SDS011;66633;47.628;19.158;2024-03-29T06:48:49;5.35;;;1.70;;
77520;SDS011;66633;47.628;19.158;2024-03-29T06:51:14;4.10;;;1.60;;
77520;SDS011;66633;47.628;19.158;2024-03-29T06:53:40;3.58;;;1.50;;
77520;SDS011;66633;47.628;19.158;2024-03-29T06:56:05;3.33;;;1.55;;
77520;SDS011;66633;47.628;19.158;2024-03-29T06:58:31;4.80;;;2.00;;
77520;SDS011;66633;47.628;19.158;2024-03-29T07:00:56;3.80;;;1.70;;
77520;SDS011;66633;47.628;19.158;2024-03-29T07:03:24;5.25;;;1.75;;
77520;SDS011;66633;47.628;19.158;2024-03-29T07:05:49;5.22;;;1.90;;
77520;SDS011;66633;47.628;19.158;2024-03-29T07:08:15;3.80;;;1.27;;
77520;SDS011;66633;47.628;19.158;2024-03-29T07:10:40;4.13;;;1.70;;
77520;SDS011;66633;47.628;19.158;2024-03-29T07:13:06;4.57;;;1.50;;
77520;SDS011;66633;47.628;19.158;2024-03-29T07:15:32;4.72;;;1.50;;
77520;SDS011;66633;47.628;19.158;2024-03-29T07:17:59;4.05;;;1.75;;
77520;SDS011;66633;47.628;19.158;2024-03-29T07:20:28;3.50;;;1.40;;
77520;SDS011;66633;47.628;19.158;2024-03-29T07:22:53;3.67;;;1.58;;
77520;SDS011;66633;47.628;19.158;2024-03-29T07:25:18;3.10;;;1.20;;
77520;SDS011;66633;47.628;19.158;2024-03-29T07:27:44;3.88;;;1.45;;
77520;SDS011;66633;47.628;19.158;2024-03-29T07:30:09;3.00;;;1.25;;
77520;SDS011;66633;47.628;19.158;2024-03-29T07:32:36;3.08;;;1.13;;
77520;SDS011;66633;47.628;19.158;2024-03-29T07:35:02;2.38;;;1.27;;
77520;SDS011;66633;47.628;19.158;2024-03-29T07:37:28;3.97;;;1.40;;
77520;SDS011;66633;47.628;19.158;2024-03-29T07:39:53;2.60;;;1.15;;
77520;SDS011;66633;47.628;19.158;2024-03-29T07:42:18;2.65;;;1.10;;
77520;SDS011;66633;47.628;19.158;2024-03-29T07:44:44;4.20;;;1.23;;
77520;SDS011;66633;47.628;19.158;2024-03-29T07:47:12;3.75;;;1.30;;
77520;SDS011;66633;47.628;19.158;2024-03-29T07:49:39;3.33;;;1.25;;
77520;SDS011;66633;47.628;19.158;2024-03-29T07:52:05;4.57;;;1.40;;
77520;SDS011;66633;47.628;19.158;2024-03-29T07:54:34;4.10;;;1.50;;
77520;SDS011;66633;47.628;19.158;2024-03-29T07:56:59;3.95;;;1.45;;
77520;SDS011;66633;47.628;19.158;2024-03-29T07:59:24;3.03;;;1.45;;
77520;SDS011;66633;47.628;19.158;2024-03-29T08:01:50;3.28;;;1.27;;
77520;SDS011;66633;47.628;19.158;2024-03-29T08:04:17;3.58;;;1.20;;
77520;SDS011;66633;47.628;19.158;2024-03-29T08:06:44;2.80;;;1.10;;
77520;SDS011;66633;47.628;19.158;2024-03-29T08:09:09;3.42;;;1.42;;
77520;SDS011;66633;47.628;19.158;2024-03-29T08:11:39;3.05;;;1.23;;
77520;SDS011;66633;47.628;19.158;2024-03-29T08:14:04;3.10;;;1.20;;
77520;SDS011;66633;47.628;19.158;2024-03-29T08:16:30;3.85;;;1.40;;
77520;SDS011;66633;47.628;19.158;2024-03-29T08:18:55;2.47;;;1.20;;
77520;SDS011;66633;47.628;19.158;2024-03-29T08:21:20;2.90;;;1.10;;
77520;SDS011;66633;47.628;19.158;2024-03-29T08:23:46;3.00;;;1.20;;
77520;SDS011;66633;47.628;19.158;2024-03-29T08:26:13;2.45;;;1.08;;
77520;SDS011;66633;47.628;19.158;2024-03-29T08:28:38;3.85;;;1.17;;
77520;SDS011;66633;47.628;19.158;2024-03-29T08:31:07;3.55;;;1.23;;
77520;SDS011;66633;47.628;19.158;2024-03-29T08:33:35;2.80;;;1.20;;
77520;SDS011;66633;47.628;19.158;2024-03-29T08:36:03;3.47;;;1.10;;
77520;SDS011;66633;47.628;19.158;2024-03-29T08:38:28;1.98;;;1.05;;
77520;SDS011;66633;47.628;19.158;2024-03-29T08:40:54;1.55;;;0.95;;
77520;SDS011;66633;47.628;19.158;2024-03-29T08:43:19;2.55;;;1.00;;
77520;SDS011;66633;47.628;19.158;2024-03-29T08:45:45;2.97;;;1.00;;
77520;SDS011;66633;47.628;19.158;2024-03-29T08:48:10;2.08;;;0.88;;
77520;SDS011;66633;47.628;19.158;2024-03-29T08:50:36;2.03;;;1.00;;
77520;SDS011;66633;47.628;19.158;2024-03-29T08:53:02;2.17;;;0.82;;
77520;SDS011;66633;47.628;19.158;2024-03-29T08:55:28;3.33;;;1.00;;
77520;SDS011;66633;47.628;19.158;2024-03-29T08:57:54;2.30;;;0.90;;
77520;SDS011;66633;47.628;19.158;2024-03-29T09:00:19;2.08;;;1.00;;
77520;SDS011;66633;47.628;19.158;2024-03-29T09:02:45;2.22;;;1.00;;
77520;SDS011;66633;47.628;19.158;2024-03-29T09:05:11;1.20;;;0.80;;
77520;SDS011;66633;47.628;19.158;2024-03-29T09:07:37;2.08;;;0.95;;
77520;SDS011;66633;47.628;19.158;2024-03-29T09:10:04;3.40;;;0.90;;
77520;SDS011;66633;47.628;19.158;2024-03-29T09:12:29;1.15;;;0.73;;
77520;SDS011;66633;47.628;19.158;2024-03-29T09:14:55;2.97;;;1.08;;
77520;SDS011;66633;47.628;19.158;2024-03-29T09:17:20;3.50;;;1.10;;
77520;SDS011;66633;47.628;19.158;2024-03-29T09:19:49;2.30;;;0.98;;
77520;SDS011;66633;47.628;19.158;2024-03-29T09:22:14;2.35;;;1.05;;
77520;SDS011;66633;47.628;19.158;2024-03-29T09:24:39;2.80;;;0.85;;
77520;SDS011;66633;47.628;19.158;2024-03-29T09:27:05;3.60;;;0.93;;
77520;SDS011;66633;47.628;19.158;2024-03-29T09:29:30;2.05;;;0.88;;
77520;SDS011;66633;47.628;19.158;2024-03-29T09:31:56;1.38;;;0.80;;
77520;SDS011;66633;47.628;19.158;2024-03-29T09:34:21;1.08;;;0.77;;
77520;SDS011;66633;47.628;19.158;2024-03-29T09:36:48;2.35;;;0.88;;
77520;SDS011;66633;47.628;19.158;2024-03-29T09:39:13;2.50;;;0.70;;
77520;SDS011;66633;47.628;19.158;2024-03-29T09:41:39;1.65;;;0.82;;
77520;SDS011;66633;47.628;19.158;2024-03-29T09:44:09;3.03;;;1.10;;
77520;SDS011;66633;47.628;19.158;2024-03-29T09:46:36;3.08;;;1.08;;
77520;SDS011;66633;47.628;19.158;2024-03-29T09:49:04;1.88;;;0.90;;
77520;SDS011;66633;47.628;19.158;2024-03-29T09:51:32;1.20;;;0.75;;
77520;SDS011;66633;47.628;19.158;2024-03-29T09:53:57;2.22;;;0.80;;
77520;SDS011;66633;47.628;19.158;2024-03-29T09:56:25;4.72;;;1.30;;
77520;SDS011;66633;47.628;19.158;2024-03-29T09:58:50;4.13;;;1.45;;
77520;SDS011;66633;47.628;19.158;2024-03-29T10:01:15;2.83;;;1.00;;
77520;SDS011;66633;47.628;19.158;2024-03-29T10:03:42;2.35;;;0.90;;
77520;SDS011;66633;47.628;19.158;2024-03-29T10:06:10;1.85;;;0.70;;
77520;SDS011;66633;47.628;19.158;2024-03-29T10:08:39;2.42;;;1.05;;
77520;SDS011;66633;47.628;19.158;2024-03-29T10:11:05;0.95;;;0.60;;
77520;SDS011;66633;47.628;19.158;2024-03-29T10:13:30;1.48;;;0.80;;
77520;SDS011;66633;47.628;19.158;2024-03-29T10:15:56;2.50;;;0.70;;
77520;SDS011;66633;47.628;19.158;2024-03-29T10:18:22;1.73;;;0.73;;
77520;SDS011;66633;47.628;19.158;2024-03-29T10:20:58;0.68;;;0.60;;
77520;SDS011;66633;47.628;19.158;2024-03-29T10:23:23;0.98;;;0.80;;
77520;SDS011;66633;47.628;19.158;2024-03-29T10:25:49;1.55;;;0.60;;
77520;SDS011;66633;47.628;19.158;2024-03-29T10:28:15;1.73;;;0.60;;
77520;SDS011;66633;47.628;19.158;2024-03-29T10:30:40;1.13;;;0.70;;
77520;SDS011;66633;47.628;19.158;2024-03-29T10:33:06;1.40;;;0.73;;
77520;SDS011;66633;47.628;19.158;2024-03-29T10:35:31;2.72;;;0.77;;
77520;SDS011;66633;47.628;19.158;2024-03-29T10:37:57;2.22;;;0.80;;
77520;SDS011;66633;47.628;19.158;2024-03-29T10:40:22;1.27;;;0.70;;
77520;SDS011;66633;47.628;19.158;2024-03-29T10:42:49;1.30;;;0.65;;
77520;SDS011;66633;47.628;19.158;2024-03-29T10:45:15;2.15;;;0.73;;
77520;SDS011;66633;47.628;19.158;2024-03-29T10:47:42;1.52;;;0.80;;
77520;SDS011;66633;47.628;19.158;2024-03-29T10:50:10;1.52;;;0.75;;
77520;SDS011;66633;47.628;19.158;2024-03-29T10:52:36;2.35;;;0.88;;
77520;SDS011;66633;47.628;19.158;2024-03-29T10:55:03;2.22;;;0.80;;
77520;SDS011;66633;47.628;19.158;2024-03-29T10:57:28;2.63;;;0.80;;
77520;SDS011;66633;47.628;19.158;2024-03-29T10:59:59;2.72;;;1.00;;
77520;SDS011;66633;47.628;19.158;2024-03-29T11:02:42;3.38;;;1.10;;
77520;SDS011;66633;47.628;19.158;2024-03-29T11:05:11;2.60;;;0.90;;
77520;SDS011;66633;47.628;19.158;2024-03-29T11:07:39;2.55;;;0.90;;
77520;SDS011;66633;47.628;19.158;2024-03-29T11:10:05;3.17;;;1.17;;
77520;SDS011;66633;47.628;19.158;2024-03-29T11:12:30;2.70;;;0.93;;
77520;SDS011;66633;47.628;19.158;2024-03-29T11:15:03;4.68;;;1.20;;
77520;SDS011;66633;47.628;19.158;2024-03-29T11:17:31;7.07;;;1.85;;
77520;SDS011;66633;47.628;19.158;2024-03-29T11:19:57;4.20;;;1.27;;
77520;SDS011;66633;47.628;19.158;2024-03-29T11:22:24;6.60;;;1.45;;
77520;SDS011;66633;47.628;19.158;2024-03-29T11:24:53;4.95;;;1.33;;
77520;SDS011;66633;47.628;19.158;2024-03-29T11:27:22;7.47;;;1.42;;
77520;SDS011;66633;47.628;19.158;2024-03-29T11:29:47;5.60;;;1.42;;
77520;SDS011;66633;47.628;19.158;2024-03-29T11:32:14;6.43;;;1.40;;
77520;SDS011;66633;47.628;19.158;2024-03-29T11:34:44;5.50;;;1.30;;
77520;SDS011;66633;47.628;19.158;2024-03-29T11:37:10;4.03;;;1.27;;
77520;SDS011;66633;47.628;19.158;2024-03-29T11:39:36;6.68;;;1.20;;
77520;SDS011;66633;47.628;19.158;2024-03-29T11:42:01;4.57;;;1.38;;
77520;SDS011;66633;47.628;19.158;2024-03-29T11:44:27;5.38;;;1.30;;
77520;SDS011;66633;47.628;19.158;2024-03-29T11:46:53;4.63;;;1.40;;
77520;SDS011;66633;47.628;19.158;2024-03-29T11:49:20;5.65;;;1.60;;
77520;SDS011;66633;47.628;19.158;2024-03-29T11:51:46;6.00;;;1.40;;
77520;SDS011;66633;47.628;19.158;2024-03-29T11:54:12;3.67;;;1.33;;
77520;SDS011;66633;47.628;19.158;2024-03-29T11:56:38;8.18;;;1.70;;
77520;SDS011;66633;47.628;19.158;2024-03-29T11:59:03;6.18;;;1.60;;
77520;SDS011;66633;47.628;19.158;2024-03-29T12:01:28;5.95;;;1.80;;
77520;SDS011;66633;47.628;19.158;2024-03-29T12:03:57;6.60;;;1.33;;
77520;SDS011;66633;47.628;19.158;2024-03-29T12:06:22;6.03;;;1.60;;
77520;SDS011;66633;47.628;19.158;2024-03-29T12:08:48;6.38;;;1.58;;
77520;SDS011;66633;47.628;19.158;2024-03-29T12:11:14;5.50;;;1.48;;
77520;SDS011;66633;47.628;19.158;2024-03-29T12:13:39;6.63;;;1.60;;
77520;SDS011;66633;47.628;19.158;2024-03-29T12:16:05;5.40;;;1.70;;
77520;SDS011;66633;47.628;19.158;2024-03-29T12:18:32;7.18;;;1.58;;
77520;SDS011;66633;47.628;19.158;2024-03-29T12:20:58;7.10;;;1.70;;
77520;SDS011;66633;47.628;19.158;2024-03-29T12:23:24;7.20;;;1.55;;
77520;SDS011;66633;47.628;19.158;2024-03-29T12:25:50;7.50;;;1.73;;
77520;SDS011;66633;47.628;19.158;2024-03-29T12:28:16;5.57;;;1.48;;
77520;SDS011;66633;47.628;19.158;2024-03-29T12:30:42;6.15;;;1.95;;
77520;SDS011;66633;47.628;19.158;2024-03-29T12:33:10;6.80;;;1.70;;
77520;SDS011;66633;47.628;19.158;2024-03-29T12:35:36;7.65;;;1.70;;
77520;SDS011;66633;47.628;19.158;2024-03-29T12:38:02;6.43;;;1.65;;
77520;SDS011;66633;47.628;19.158;2024-03-29T12:40:28;6.88;;;1.60;;
77520;SDS011;66633;47.628;19.158;2024-03-29T12:42:55;5.90;;;2.03;;
77520;SDS011;66633;47.628;19.158;2024-03-29T12:45:21;7.25;;;1.98;;
77520;SDS011;66633;47.628;19.158;2024-03-29T12:47:47;11.88;;;1.83;;
77520;SDS011;66633;47.628;19.158;2024-03-29T12:50:31;6.80;;;1.98;;
77520;SDS011;66633;47.628;19.158;2024-03-29T12:52:57;4.30;;;1.45;;
77520;SDS011;66633;47.628;19.158;2024-03-29T12:55:23;8.40;;;1.65;;
77520;SDS011;66633;47.628;19.158;2024-03-29T12:57:50;6.25;;;1.38;;
77520;SDS011;66633;47.628;19.158;2024-03-29T13:00:18;8.75;;;1.80;;
77520;SDS011;66633;47.628;19.158;2024-03-29T13:02:44;6.35;;;1.55;;
77520;SDS011;66633;47.628;19.158;2024-03-29T13:05:09;6.07;;;1.60;;
77520;SDS011;66633;47.628;19.158;2024-03-29T13:07:35;6.10;;;1.50;;
77520;SDS011;66633;47.628;19.158;2024-03-29T13:10:01;7.72;;;2.00;;
77520;SDS011;66633;47.628;19.158;2024-03-29T13:12:35;6.72;;;1.70;;
77520;SDS011;66633;47.628;19.158;2024-03-29T13:15:02;8.40;;;2.03;;
77520;SDS011;66633;47.628;19.158;2024-03-29T13:17:29;7.43;;;2.60;;
77520;SDS011;66633;47.628;19.158;2024-03-29T13:19:54;12.02;;;3.53;;
77520;SDS011;66633;47.628;19.158;2024-03-29T13:22:20;12.48;;;3.40;;
77520;SDS011;66633;47.628;19.158;2024-03-29T13:24:45;9.70;;;2.80;;
77520;SDS011;66633;47.628;19.158;2024-03-29T13:27:10;10.35;;;2.30;;
77520;SDS011;66633;47.628;19.158;2024-03-29T13:29:37;10.63;;;2.45;;
77520;SDS011;66633;47.628;19.158;2024-03-29T13:32:03;11.90;;;2.95;;
77520;SDS011;66633;47.628;19.158;2024-03-29T13:34:28;12.98;;;3.38;;
77520;SDS011;66633;47.628;19.158;2024-03-29T13:36:54;9.60;;;3.47;;
77520;SDS011;66633;47.628;19.158;2024-03-29T13:39:20;14.82;;;3.70;;
77520;SDS011;66633;47.628;19.158;2024-03-29T13:41:48;8.80;;;2.63;;
77520;SDS011;66633;47.628;19.158;2024-03-29T13:44:13;10.18;;;2.83;;
77520;SDS011;66633;47.628;19.158;2024-03-29T13:46:42;10.15;;;3.10;;
77520;SDS011;66633;47.628;19.158;2024-03-29T13:49:07;9.32;;;3.13;;
77520;SDS011;66633;47.628;19.158;2024-03-29T13:51:32;10.25;;;2.70;;
77520;SDS011;66633;47.628;19.158;2024-03-29T13:53:58;10.40;;;2.13;;
77520;SDS011;66633;47.628;19.158;2024-03-29T13:56:23;8.73;;;2.15;;
77520;SDS011;66633;47.628;19.158;2024-03-29T13:58:49;13.55;;;3.20;;
77520;SDS011;66633;47.628;19.158;2024-03-29T14:01:14;13.98;;;3.97;;
77520;SDS011;66633;47.628;19.158;2024-03-29T14:03:40;11.07;;;3.58;;
77520;SDS011;66633;47.628;19.158;2024-03-29T14:06:05;11.02;;;3.40;;
77520;SDS011;66633;47.628;19.158;2024-03-29T14:08:31;12.82;;;3.80;;
77520;SDS011;66633;47.628;19.158;2024-03-29T14:10:56;10.00;;;3.03;;
77520;SDS011;66633;47.628;19.158;2024-03-29T14:13:22;9.98;;;3.05;;
77520;SDS011;66633;47.628;19.158;2024-03-29T14:15:47;11.45;;;2.60;;
77520;SDS011;66633;47.628;19.158;2024-03-29T14:18:12;9.18;;;2.15;;
77520;SDS011;66633;47.628;19.158;2024-03-29T14:20:38;9.95;;;2.65;;
77520;SDS011;66633;47.628;19.158;2024-03-29T14:23:04;7.00;;;2.10;;
77520;SDS011;66633;47.628;19.158;2024-03-29T14:25:31;6.68;;;1.95;;
77520;SDS011;66633;47.628;19.158;2024-03-29T14:27:57;7.57;;;2.08;;